Time;durP1;ratioP1;P1;durP2;ratioP2;P2;SDS_P1;SDS_P2;PMS_P1;PMS_P2;Temp;Humidity;BMP_temperature;BMP_pressure;BME280_temperature;BME280_humidity;BME280_pressure;Samples;Min_cycle;Max_cycle;Signal;HPM_P1;HPM_P2
2022/09/08 00:02:26;;;;;;;5.13;4.63;;;;;;;18.74;77.03;101084.22;6214680;28;20236;-65
2022/09/08 00:05:51;;;;;;;5.25;4.75;;;;;;;18.74;76.59;101078.78;6207388;28;20253;-68
2022/09/08 00:09:12;;;;;;;5.85;5.00;;;;;;;18.63;77.34;101073.75;6218251;28;20553;-66
2022/09/08 00:12:37;;;;;;;5.40;4.90;;;;;;;18.69;77.13;101082.03;6216571;28;20603;-65
2022/09/08 00:16:02;;;;;;;6.43;5.82;;;;;;;18.70;76.94;101081.03;6218398;28;20224;-66
2022/09/08 00:19:22;;;;;;;7.00;6.22;;;;;;;18.74;76.98;101073.31;6217392;28;20221;-65
2022/09/08 00:22:43;;;;;;;5.72;4.47;;;;;;;18.66;76.95;101073.38;6218283;28;20236;-66
2022/09/08 00:26:04;;;;;;;5.57;5.05;;;;;;;18.66;76.98;101076.13;6213142;28;20255;-65
2022/09/08 00:29:27;;;;;;;5.32;4.50;;;;;;;18.56;77.46;101070.06;6215744;28;20224;-65
2022/09/08 00:32:48;;;;;;;5.53;4.65;;;;;;;18.58;77.28;101078.91;6218876;28;20610;-65
2022/09/08 00:36:14;;;;;;;5.43;4.93;;;;;;;18.59;76.91;101070.53;6198615;28;20250;-65
2022/09/08 00:39:35;;;;;;;5.32;4.15;;;;;;;18.54;76.66;101064.78;6213950;28;20228;-65
2022/09/08 00:43:00;;;;;;;5.13;4.63;;;;;;;18.40;77.94;101057.34;6218526;28;20228;-66
2022/09/08 00:46:28;;;;;;;6.45;5.10;;;;;;;18.43;77.38;101053.41;6208394;28;20451;-65
2022/09/08 00:49:54;;;;;;;7.00;6.25;;;;;;;18.44;77.51;101047.78;6207658;28;20224;-65
2022/09/08 00:53:17;;;;;;;7.50;6.75;;;;;;;18.39;77.25;101042.00;6200233;28;20229;-66
2022/09/08 00:56:41;;;;;;;8.00;5.60;;;;;;;18.41;77.35;101039.06;6198286;28;20233;-64
2022/09/08 01:00:05;;;;;;;9.35;4.95;;;;;;;18.42;77.21;101043.53;6196618;28;20253;-65
2022/09/08 01:03:27;;;;;;;5.43;4.93;;;;;;;18.35;77.38;101041.53;6215869;28;20251;-65
2022/09/08 01:14:41;;;;;;;5.68;4.93;;;;;;;18.28;77.32;101034.22;6211550;28;20236;-65
2022/09/08 01:18:02;;;;;;;5.22;4.72;;;;;;;18.28;77.32;101034.22;6215818;28;20224;-65
2022/09/08 01:21:39;;;;;;;5.95;4.88;;;;;;;18.24;77.38;101019.25;6223209;28;20602;-66
2022/09/08 01:25:14;;;;;;;6.38;5.35;;;;;;;18.20;77.21;101013.31;6219983;28;20236;-65
2022/09/08 01:28:41;;;;;;;5.70;4.18;;;;;;;18.21;77.50;101014.16;6215878;28;20232;-66
2022/09/08 01:32:04;;;;;;;7.13;4.82;;;;;;;18.15;77.36;101018.47;6210937;28;20228;-65
2022/09/08 01:35:29;;;;;;;5.32;4.85;;;;;;;18.18;77.16;101028.16;6215249;28;20232;-66
2022/09/08 01:38:50;;;;;;;8.60;5.45;;;;;;;18.09;77.07;101026.50;6212411;28;20232;-65
2022/09/08 01:42:11;;;;;;;5.55;4.38;;;;;;;17.97;77.72;101028.81;6222092;28;20233;-65
2022/09/08 01:45:33;;;;;;;5.70;4.47;;;;;;;18.00;77.97;101024.91;6214940;28;20325;-65
2022/09/08 01:48:54;;;;;;;4.95;4.50;;;;;;;18.03;77.41;101029.97;6208363;28;20496;-65
2022/09/08 01:52:14;;;;;;;5.32;4.68;;;;;;;17.86;78.27;101022.91;6219699;28;20352;-65
2022/09/08 01:55:35;;;;;;;5.82;5.18;;;;;;;17.89;78.27;101017.97;6215899;28;20263;-65
2022/09/08 01:58:56;;;;;;;5.45;4.93;;;;;;;17.97;77.48;101031.56;6205154;28;20244;-65
2022/09/08 02:02:19;;;;;;;6.65;5.20;;;;;;;17.89;77.66;101030.75;6204021;28;20233;-65
2022/09/08 02:05:40;;;;;;;5.38;4.97;;;;;;;17.88;77.78;101023.56;6219155;28;20244;-65
2022/09/08 02:09:01;;;;;;;4.68;4.28;;;;;;;17.80;77.80;101029.94;6209443;28;20534;-66
2022/09/08 02:12:22;;;;;;;6.80;5.03;;;;;;;17.76;78.38;101025.88;6217386;28;20236;-65
2022/09/08 02:15:43;;;;;;;4.57;4.18;;;;;;;17.74;77.62;101022.47;6215882;28;20229;-65
2022/09/08 02:19:05;;;;;;;6.82;5.38;;;;;;;17.68;78.43;101009.56;6215009;28;20232;-66
2022/09/08 02:22:26;;;;;;;5.32;4.45;;;;;;;17.73;77.90;100998.13;6219416;28;20233;-64
2022/09/08 02:25:47;;;;;;;6.75;6.10;;;;;;;17.70;77.61;100995.75;6213016;28;20240;-65
2022/09/08 02:29:10;;;;;;;4.93;3.70;;;;;;;17.73;77.39;100987.22;6215506;28;20879;-65
2022/09/08 02:32:31;;;;;;;6.22;4.70;;;;;;;17.70;77.27;100985.69;6201343;28;20232;-65
2022/09/08 02:35:53;;;;;;;4.80;4.40;;;;;;;17.67;77.56;100987.94;6210874;28;20236;-65
2022/09/08 02:39:17;;;;;;;5.72;4.55;;;;;;;17.54;77.86;100985.78;6215631;28;20614;-65
2022/09/08 02:42:39;;;;;;;6.60;5.85;;;;;;;17.58;77.75;100975.38;6201425;28;20241;-65
2022/09/08 02:46:04;;;;;;;4.47;4.00;;;;;;;17.65;77.28;100977.19;6201731;28;20328;-65
2022/09/08 02:49:25;;;;;;;5.43;4.05;;;;;;;17.73;76.84;100973.56;6223790;28;20240;-66
2022/09/08 02:52:47;;;;;;;4.60;4.20;;;;;;;17.61;76.69;100983.19;6216581;28;20597;-65
2022/09/08 02:56:09;;;;;;;5.47;3.97;;;;;;;17.60;77.04;100976.03;6216752;28;20723;-65
2022/09/08 02:59:30;;;;;;;6.65;5.90;;;;;;;17.66;76.93;100987.06;6215163;28;20556;-65
2022/09/08 03:02:51;;;;;;;4.72;4.10;;;;;;;17.61;77.07;100991.38;6213510;28;20227;-66
2022/09/08 03:06:12;;;;;;;4.78;4.32;;;;;;;17.64;76.79;100982.81;6212555;28;20234;-66
2022/09/08 03:09:35;;;;;;;11.02;9.95;;;;;;;17.56;76.81;100992.75;6216812;28;21812;-65
2022/09/08 03:12:57;;;;;;;12.27;10.80;;;;;;;17.49;76.86;100980.88;6211726;28;20245;-65
2022/09/08 03:16:18;;;;;;;10.82;7.43;;;;;;;17.50;76.84;100984.44;6221271;28;20240;-65
2022/09/08 03:19:38;;;;;;;6.40;5.32;;;;;;;17.41;76.81;100980.88;6218315;28;20630;-65
2022/09/08 03:22:59;;;;;;;5.43;4.93;;;;;;;17.44;76.47;100994.13;6223296;28;20341;-65
2022/09/08 03:26:24;;;;;;;6.70;5.35;;;;;;;17.34;77.46;100989.91;6210464;28;20503;-65
2022/09/08 03:29:45;;;;;;;5.03;4.15;;;;;;;17.39;76.73;100982.06;6213262;28;20236;-65
2022/09/08 03:33:05;;;;;;;5.40;4.30;;;;;;;17.33;76.74;100988.25;6189218;28;20327;-65
2022/09/08 03:36:26;;;;;;;5.50;3.50;;;;;;;17.31;77.11;100982.13;6204438;28;20252;-65
2022/09/08 03:39:48;;;;;;;4.43;4.00;;;;;;;17.31;76.99;100985.66;6206485;28;20447;-65
2022/09/08 03:43:10;;;;;;;6.47;3.92;;;;;;;17.43;76.83;100976.09;6210124;28;20239;-66
2022/09/08 03:46:31;;;;;;;5.13;4.63;;;;;;;17.51;76.13;100967.03;6192751;28;20237;-66
2022/09/08 03:49:52;;;;;;;9.00;6.75;;;;;;;17.42;76.51;100968.06;6216618;28;20247;-66
2022/09/08 03:53:13;;;;;;;10.70;8.32;;;;;;;17.41;76.26;100959.06;6211360;28;20247;-65
2022/09/08 03:56:34;;;;;;;7.10;6.32;;;;;;;17.44;76.14;100945.06;6215147;28;20591;-66
2022/09/08 03:59:59;;;;;;;9.70;7.28;;;;;;;17.43;75.87;100939.81;6204834;28;20507;-65
2022/09/08 04:03:20;;;;;;;10.52;8.75;;;;;;;17.45;75.74;100948.66;6217726;28;20239;-65
2022/09/08 04:06:41;;;;;;;7.15;6.45;;;;;;;17.39;75.66;100947.50;6208201;28;20269;-65
2022/09/08 04:10:02;;;;;;;5.78;5.22;;;;;;;17.30;75.13;100945.84;6213769;28;20236;-65
2022/09/08 04:13:23;;;;;;;6.90;4.07;;;;;;;17.27;75.81;100943.44;6217522;28;20252;-65
2022/09/08 04:16:46;;;;;;;5.18;3.28;;;;;;;17.35;75.82;100943.44;6211220;28;20232;-65
2022/09/08 04:20:08;;;;;;;3.45;3.00;;;;;;;17.47;75.08;100939.28;6217599;28;20965;-65
2022/09/08 04:23:30;;;;;;;6.85;4.05;;;;;;;17.40;75.60;100941.00;6225440;28;20542;-65
2022/09/08 04:26:50;;;;;;;4.95;4.00;;;;;;;17.37;75.33;100935.06;6218522;28;20548;-65
2022/09/08 04:30:14;;;;;;;3.70;3.38;;;;;;;17.36;75.39;100936.09;6221197;28;20232;-65
2022/09/08 04:33:36;;;;;;;4.32;3.92;;;;;;;17.38;75.08;100929.44;6226668;28;20248;-66
2022/09/08 04:36:57;;;;;;;4.32;3.50;;;;;;;17.28;75.00;100939.72;6223443;28;20233;-66
2022/09/08 04:40:18;;;;;;;5.38;3.63;;;;;;;17.32;75.17;100935.59;6222866;28;20241;-65
2022/09/08 04:43:40;;;;;;;3.90;3.40;;;;;;;17.36;74.88;100926.03;6224678;28;20593;-66
2022/09/08 04:47:01;;;;;;;3.97;3.47;;;;;;;17.33;74.59;100922.84;6225146;28;20655;-66
2022/09/08 04:50:23;;;;;;;4.13;2.83;;;;;;;17.15;74.98;100922.22;6222644;28;20224;-65
2022/09/08 04:53:45;;;;;;;4.15;3.75;;;;;;;17.12;75.43;100919.88;6212016;28;20661;-65
2022/09/08 04:57:06;;;;;;;2.90;2.60;;;;;;;17.19;75.03;100912.69;6222680;28;20645;-65
2022/09/08 05:00:27;;;;;;;4.20;3.08;;;;;;;17.18;74.59;100925.47;6217387;28;20671;-65
2022/09/08 05:03:51;;;;;;;6.03;5.53;;;;;;;17.14;74.78;100915.94;6218661;28;20236;-65
2022/09/08 05:07:13;;;;;;;9.88;6.13;;;;;;;17.24;74.23;100910.25;6224182;28;20528;-65
2022/09/08 05:10:34;;;;;;;5.75;3.97;;;;;;;17.25;74.68;100895.63;6215475;28;20534;-65
2022/09/08 05:13:56;;;;;;;5.20;3.78;;;;;;;17.38;73.77;100893.16;6219631;28;20473;-66
2022/09/08 05:17:17;;;;;;;3.47;3.08;;;;;;;17.36;73.90;100889.75;6224923;28;20638;-66
2022/09/08 05:20:38;;;;;;;7.13;3.00;;;;;;;17.40;73.58;100893.81;6214588;28;20614;-65
2022/09/08 05:24:01;;;;;;;4.47;3.88;;;;;;;17.44;73.17;100882.38;6216248;28;20354;-66
2022/09/08 05:27:22;;;;;;;5.07;3.95;;;;;;;17.36;72.87;100890.59;6217439;28;20231;-65
2022/09/08 05:30:43;;;;;;;2.95;2.65;;;;;;;17.41;72.90;100882.75;6212873;28;20308;-65
2022/09/08 05:34:04;;;;;;;3.53;2.13;;;;;;;17.48;72.44;100880.16;6213694;28;20363;-66
2022/09/08 05:37:26;;;;;;;2.33;2.13;;;;;;;17.74;71.64;100852.53;6223323;28;20220;-65
2022/09/08 05:40:48;;;;;;;6.03;2.53;;;;;;;17.63;71.68;100859.28;6214703;28;20251;-66
2022/09/08 05:44:14;;;;;;;2.83;2.60;;;;;;;17.70;71.02;100862.13;6223542;28;20260;-66
2022/09/08 05:47:35;;;;;;;5.38;3.00;;;;;;;17.63;71.43;100870.19;6220462;28;20870;-66
2022/09/08 05:50:56;;;;;;;3.65;3.08;;;;;;;17.65;71.26;100875.47;6219415;28;20233;-66
2022/09/08 05:54:16;;;;;;;7.55;3.90;;;;;;;17.75;70.69;100876.06;6218424;28;20537;-66
2022/09/08 05:57:39;;;;;;;3.50;2.80;;;;;;;17.73;70.60;100869.94;6223278;28;20248;-67
2022/09/08 06:01:02;;;;;;;2.90;2.70;;;;;;;17.77;70.59;100868.56;6213975;28;20483;-66
2022/09/08 06:04:23;;;;;;;3.58;3.08;;;;;;;17.91;69.67;100868.59;6215410;28;20264;-66
2022/09/08 06:07:44;;;;;;;3.42;2.50;;;;;;;17.91;69.48;100873.19;6222976;28;20239;-65
2022/09/08 06:11:06;;;;;;;5.68;4.22;;;;;;;17.94;69.33;100873.66;6216534;28;20626;-64
2022/09/08 06:14:28;;;;;;;8.18;3.67;;;;;;;18.04;68.72;100879.75;6219744;28;20228;-65
2022/09/08 06:17:49;;;;;;;4.32;3.63;;;;;;;18.38;68.02;100883.84;6220389;28;20228;-65
2022/09/08 06:21:12;;;;;;;6.38;2.88;;;;;;;18.37;68.08;100880.28;6223231;28;20503;-65
2022/09/08 06:24:33;;;;;;;3.55;2.90;;;;;;;18.48;66.77;100887.19;6218513;28;20618;-65
2022/09/08 06:28:00;;;;;;;3.30;2.92;;;;;;;18.38;67.29;100871.88;6202041;28;21953;-70
2022/09/08 06:31:29;;;;;;;2.60;2.33;;;;;;;17.95;67.97;100875.38;6203316;28;20657;-68
2022/09/08 06:34:54;;;;;;;4.65;2.15;;;;;;;18.18;67.16;100889.84;6229952;28;20235;-68
2022/09/08 06:38:23;;;;;;;4.07;2.42;;;;;;;18.22;67.09;100893.03;6228030;28;20243;-68
2022/09/08 06:41:48;;;;;;;1.85;1.75;;;;;;;18.32;66.82;100877.25;6232347;28;20240;-68
2022/09/08 06:45:19;;;;;;;2.65;2.20;;;;;;;18.60;66.71;100874.75;6225595;28;20240;-69
2022/09/08 06:48:41;;;;;;;3.40;1.83;;;;;;;18.63;66.07;100872.50;6227046;28;20244;-70
2022/09/08 06:52:14;;;;;;;2.63;1.88;;;;;;;18.15;66.30;100870.25;6226513;28;20311;-68
2022/09/08 06:55:39;;;;;;;2.38;2.22;;;;;;;18.27;66.40;100869.59;6213021;28;20240;-68
2022/09/08 06:59:03;;;;;;;2.53;2.28;;;;;;;18.32;65.91;100869.91;6219863;28;20237;-68
2022/09/08 07:02:48;;;;;;;3.53;3.20;;;;;;;18.24;66.57;100869.13;6214510;28;20560;-68
2022/09/08 07:06:10;;;;;;;3.22;1.95;;;;;;;18.17;66.18;100870.91;6217483;28;24583;-68
2022/09/08 07:09:38;;;;;;;3.03;2.15;;;;;;;18.23;66.29;100860.09;6218023;28;20225;-68
2022/09/08 07:13:07;;;;;;;3.80;2.47;;;;;;;18.19;66.55;100860.69;6194756;28;20706;-68
2022/09/08 07:16:33;;;;;;;2.03;1.83;;;;;;;18.21;66.36;100875.81;6216418;28;20559;-68
2022/09/08 07:19:55;;;;;;;2.50;1.90;;;;;;;18.15;66.97;100873.81;6207116;28;20613;-68
2022/09/08 07:23:22;;;;;;;4.85;2.47;;;;;;;18.39;66.26;100883.66;6201028;28;20224;-66
2022/09/08 07:26:50;;;;;;;2.67;2.45;;;;;;;18.49;65.14;100887.00;6217610;28;20230;-68
2022/09/08 07:30:15;;;;;;;2.65;2.05;;;;;;;18.52;64.98;100861.19;6212127;28;20452;-67
2022/09/08 07:33:39;;;;;;;3.60;2.58;;;;;;;18.72;65.13;100865.91;6221802;28;20504;-68
2022/09/08 07:37:11;;;;;;;4.78;4.22;;;;;;;18.67;64.21;100862.06;6216598;28;20245;-68
2022/09/08 07:40:40;;;;;;;2.60;2.25;;;;;;;18.50;65.44;100858.66;6209867;28;20220;-67
2022/09/08 07:44:06;;;;;;;6.70;2.35;;;;;;;18.48;64.23;100851.69;6209440;28;20227;-67
2022/09/08 07:47:41;;;;;;;2.58;2.15;;;;;;;18.50;64.72;100850.47;6215213;28;20228;-68
2022/09/08 07:51:11;;;;;;;2.90;2.15;;;;;;;18.78;64.81;100846.03;6220360;28;20552;-67
2022/09/08 07:55:01;;;;;;;2.30;1.90;;;;;;;19.04;63.47;100842.78;6219507;28;20216;-67
2022/09/08 07:58:33;;;;;;;2.13;1.75;;;;;;;19.15;62.57;100832.19;6213573;28;20232;-67
2022/09/08 08:02:03;;;;;;;2.33;1.73;;;;;;;18.98;62.14;100838.91;6220338;28;20232;-68
2022/09/08 08:05:28;;;;;;;2.15;1.70;;;;;;;19.00;61.68;100838.75;6228221;28;20262;-68
2022/09/08 08:08:59;;;;;;;2.88;2.20;;;;;;;18.55;62.78;100837.09;6225384;28;20224;-68
2022/09/08 08:12:27;;;;;;;3.65;1.73;;;;;;;18.41;62.47;100837.06;6219183;28;20845;-69
2022/09/08 08:15:58;;;;;;;2.17;1.60;;;;;;;18.42;62.46;100834.13;6209065;28;20318;-67
2022/09/08 08:19:33;;;;;;;1.52;1.42;;;;;;;18.69;63.06;100838.97;6206152;28;20232;-68
2022/09/08 08:23:34;;;;;;;5.07;1.77;;;;;;;18.70;61.76;100837.09;6219938;28;20323;-68
2022/09/08 08:27:02;;;;;;;2.85;1.88;;;;;;;18.59;62.25;100829.34;6230488;28;20240;-69
2022/09/08 08:30:24;;;;;;;3.13;1.50;;;;;;;18.66;62.34;100827.56;6225524;28;20660;-67
2022/09/08 08:33:51;;;;;;;1.60;1.50;;;;;;;18.83;61.56;100816.28;6231990;28;20224;-68
2022/09/08 08:37:17;;;;;;;4.55;2.25;;;;;;;18.80;60.89;100830.28;6237370;28;20318;-69
2022/09/08 08:40:52;;;;;;;2.22;1.52;;;;;;;18.65;61.61;100829.44;6226683;28;20236;-67
2022/09/08 08:44:23;;;;;;;3.80;1.77;;;;;;;18.75;60.93;100823.72;6228516;28;20758;-68
2022/09/08 08:48:00;;;;;;;4.72;3.72;;;;;;;18.74;60.93;100838.41;6233052;28;20245;-67
2022/09/08 08:51:47;;;;;;;3.08;2.60;;;;;;;18.58;60.91;100855.00;6232951;28;20280;-68
2022/09/08 08:55:27;;;;;;;3.40;2.63;;;;;;;18.94;60.09;100834.88;6222337;28;20236;-68
2022/09/08 08:59:37;;;;;;;2.25;1.80;;;;;;;19.02;59.70;100839.41;6223059;28;20766;-67
2022/09/08 09:03:15;;;;;;;2.47;1.70;;;;;;;19.29;58.78;100844.16;6139797;28;20489;-68
2022/09/08 09:07:15;;;;;;;3.40;1.67;;;;;;;19.36;58.87;100834.13;6164938;28;20230;-67
2022/09/08 09:10:59;;;;;;;4.05;1.83;;;;;;;19.49;58.11;100827.97;6189391;28;20238;-67
2022/09/08 09:15:01;;;;;;;2.85;2.38;;;;;;;19.66;57.35;100837.59;6225431;28;20256;-68
2022/09/08 09:19:16;;;;;;;7.20;2.90;;;;;;;19.88;56.79;100833.81;6222518;28;20590;-67
2022/09/08 09:22:48;;;;;;;2.15;1.27;;;;;;;19.50;56.58;100835.13;6190143;28;20237;-68
2022/09/08 09:26:18;;;;;;;4.30;1.90;;;;;;;19.62;56.71;100831.69;6224790;28;20804;-68
2022/09/08 09:29:39;;;;;;;1.75;1.65;;;;;;;19.84;55.85;100825.16;6212217;28;20354;-67
2022/09/08 09:33:41;;;;;;;6.97;1.90;;;;;;;19.99;55.94;100819.59;6217296;28;20637;-68
2022/09/08 09:37:24;;;;;;;1.75;1.40;;;;;;;19.83;55.99;100812.53;6230000;28;20280;-67
2022/09/08 09:41:24;;;;;;;2.30;1.55;;;;;;;19.96;55.39;100803.59;6220971;28;20416;-67
2022/09/08 09:45:12;;;;;;;3.10;1.95;;;;;;;20.00;55.39;100785.72;6205369;28;20221;-68
2022/09/08 09:48:58;;;;;;;2.92;1.50;;;;;;;20.25;54.62;100786.13;6194073;28;20586;-68
2022/09/08 09:52:26;;;;;;;1.60;1.25;;;;;;;19.93;54.53;100785.66;6222332;28;20256;-68
2022/09/08 09:56:07;;;;;;;1.88;1.27;;;;;;;20.03;55.09;100778.97;6230770;28;20653;-67
2022/09/08 09:59:55;;;;;;;2.42;1.95;;;;;;;19.97;55.18;100758.72;6200392;28;20660;-67
2022/09/08 10:03:45;;;;;;;3.90;1.30;;;;;;;19.79;55.06;100751.03;6220637;28;20232;-68
2022/09/08 10:07:35;;;;;;;2.83;1.55;;;;;;;19.96;54.62;100745.25;6219345;28;20228;-66
2022/09/08 10:11:15;;;;;;;2.95;1.67;;;;;;;19.54;55.85;100738.84;6224875;28;20232;-68
2022/09/08 10:15:25;;;;;;;3.30;3.00;;;;;;;19.94;55.89;100735.34;6212359;28;20224;-69
2022/09/08 10:19:18;;;;;;;5.28;1.88;;;;;;;20.02;55.11;100731.63;6215511;28;20228;-68
2022/09/08 10:23:10;;;;;;;4.35;2.25;;;;;;;20.00;55.68;100741.94;6220390;28;20225;-67
2022/09/08 10:27:03;;;;;;;8.70;3.70;;;;;;;19.68;56.19;100756.19;6203965;28;20584;-68
2022/09/08 10:30:45;;;;;;;3.17;2.47;;;;;;;19.36;57.30;100754.03;6204081;28;20232;-68
2022/09/08 10:34:37;;;;;;;4.00;2.17;;;;;;;19.46;57.48;100765.47;6206477;28;20244;-68
2022/09/08 10:38:33;;;;;;;4.18;1.80;;;;;;;19.25;57.74;100779.09;6214671;28;20240;-68
2022/09/08 10:42:30;;;;;;;3.85;2.30;;;;;;;18.43;60.14;100767.59;6216248;28;20551;-68
2022/09/08 10:46:28;;;;;;;4.57;4.18;;;;;;;18.32;62.91;100774.38;6219360;28;20602;-69
2022/09/08 10:50:23;;;;;;;5.40;3.05;;;;;;;18.45;63.63;100768.28;6224196;28;20224;-69
2022/09/08 10:54:07;;;;;;;7.15;5.60;;;;;;;18.30;65.68;100764.66;6220565;28;20225;-67
2022/09/08 10:57:45;;;;;;;5.15;2.95;;;;;;;18.37;67.07;100757.44;6224258;28;20658;-68
2022/09/08 11:01:32;;;;;;;5.28;3.95;;;;;;;18.34;67.67;100768.72;6213884;28;20645;-68
2022/09/08 11:05:30;;;;;;;10.85;5.78;;;;;;;18.28;68.63;100761.28;6217705;28;20225;-67
2022/09/08 11:09:24;;;;;;;6.57;4.65;;;;;;;18.06;69.92;100778.59;6214607;28;20250;-67
2022/09/08 11:12:58;;;;;;;5.88;3.38;;;;;;;17.74;71.67;100789.81;6213574;28;20229;-67
2022/09/08 11:16:38;;;;;;;3.20;2.38;;;;;;;17.93;71.09;100803.78;6219462;28;20618;-68
2022/09/08 11:20:08;;;;;;;5.70;3.65;;;;;;;17.55;73.19;100808.41;6221556;28;20608;-68
2022/09/08 11:23:43;;;;;;;3.95;2.35;;;;;;;17.67;73.29;100818.88;6223894;28;20224;-68
2022/09/08 11:27:15;;;;;;;5.38;3.38;;;;;;;17.62;73.40;100826.75;6225670;28;20252;-68
2022/09/08 11:30:45;;;;;;;7.95;3.97;;;;;;;17.31;73.87;100824.88;6222053;28;20666;-68
2022/09/08 11:34:41;;;;;;;6.72;5.43;;;;;;;17.60;73.13;100809.72;6219107;28;20347;-68
2022/09/08 11:38:27;;;;;;;7.32;4.55;;;;;;;17.61;73.29;100798.63;6215789;28;20243;-68
2022/09/08 11:42:26;;;;;;;5.43;4.32;;;;;;;17.53;73.46;100788.66;6233974;28;20228;-67
2022/09/08 11:46:01;;;;;;;6.28;3.63;;;;;;;17.18;75.61;100791.09;6167738;28;20232;-68
2022/09/08 11:49:39;;;;;;;10.63;5.47;;;;;;;17.03;76.52;100790.16;6229163;28;20599;-70
2022/09/08 11:53:23;;;;;;;4.47;4.07;;;;;;;17.07;76.66;100781.47;6226173;28;20224;-67
2022/09/08 11:57:08;;;;;;;7.88;4.18;;;;;;;17.33;75.81;100786.56;6226508;28;20232;-68
2022/09/08 12:00:53;;;;;;;9.73;5.32;;;;;;;18.03;73.24;100776.22;6216458;28;20558;-68
2022/09/08 12:04:42;;;;;;;6.65;4.32;;;;;;;18.38;72.75;100767.28;6220598;28;20232;-68
2022/09/08 12:08:20;;;;;;;3.58;2.80;;;;;;;18.43;71.81;100772.19;6223060;28;20523;-68
2022/09/08 12:11:59;;;;;;;5.25;3.42;;;;;;;18.71;70.30;100767.78;6215923;28;20224;-68
2022/09/08 12:15:34;;;;;;;3.03;2.33;;;;;;;18.52;71.80;100782.88;6225330;28;20224;-69
2022/09/08 12:19:11;;;;;;;4.13;3.45;;;;;;;18.68;70.60;100779.94;6223351;28;20589;-69
2022/09/08 12:22:51;;;;;;;3.58;2.45;;;;;;;18.40;71.61;100787.06;6215990;28;20717;-68
2022/09/08 12:26:23;;;;;;;3.63;2.67;;;;;;;18.16;72.01;100782.75;6220005;28;20910;-67
2022/09/08 12:30:00;;;;;;;4.45;2.13;;;;;;;18.10;72.33;100786.22;6219430;28;20216;-68
2022/09/08 12:33:44;;;;;;;2.67;2.47;;;;;;;18.02;72.15;100782.75;6218096;28;20244;-68
2022/09/08 12:37:13;;;;;;;4.13;2.47;;;;;;;18.27;71.35;100768.63;6220374;28;20236;-68
2022/09/08 12:41:07;;;;;;;4.78;3.35;;;;;;;17.93;74.08;100767.47;6213074;28;21127;-67
2022/09/08 12:44:43;;;;;;;3.00;2.75;;;;;;;17.81;74.35;100775.28;6216332;28;21168;-67
2022/09/08 12:48:14;;;;;;;2.50;2.05;;;;;;;18.08;73.49;100766.47;6215622;28;20228;-67
2022/09/08 12:51:37;;;;;;;3.13;2.92;;;;;;;17.95;74.57;100769.00;6232191;28;20606;-67
2022/09/08 12:55:09;;;;;;;2.83;2.53;;;;;;;18.00;73.85;100765.72;6225334;28;20688;-67
2022/09/08 12:58:39;;;;;;;4.85;2.85;;;;;;;17.63;75.52;100754.84;6213206;28;20225;-68
2022/09/08 13:02:22;;;;;;;2.85;2.60;;;;;;;17.69;75.35;100751.38;6185695;28;20564;-67
2022/09/08 13:06:11;;;;;;;3.15;2.88;;;;;;;17.49;76.56;100759.16;6203590;28;20229;-67
2022/09/08 13:09:37;;;;;;;2.63;2.15;;;;;;;17.52;76.90;100748.78;6227967;28;20240;-68
2022/09/08 13:13:31;;;;;;;3.50;2.70;;;;;;;17.70;78.08;100747.59;6230832;28;20228;-72
2022/09/08 13:17:00;;;;;;;3.10;1.90;;;;;;;17.72;76.17;100746.38;6227959;28;20256;-68
2022/09/08 13:20:30;;;;;;;3.35;2.30;;;;;;;17.63;76.22;100749.38;6226637;28;20232;-68
2022/09/08 13:23:54;;;;;;;2.50;1.95;;;;;;;17.62;76.08;100748.53;6232882;28;20224;-69
2022/09/08 13:27:31;;;;;;;3.15;2.85;;;;;;;17.70;75.49;100750.31;6235574;28;20248;-67
2022/09/08 13:31:04;;;;;;;2.53;2.33;;;;;;;17.61;76.15;100754.19;6234947;28;20228;-67
2022/09/08 13:34:38;;;;;;;6.25;4.85;;;;;;;17.53;76.30;100746.91;6201287;28;20315;-72
2022/09/08 13:38:15;;;;;;;5.82;4.97;;;;;;;17.26;78.34;100750.16;6224801;28;20232;-77
2022/09/08 13:41:58;;;;;;;8.93;4.63;;;;;;;17.30;78.25;100746.91;6228070;28;20224;-76
2022/09/08 13:45:35;;;;;;;3.72;3.13;;;;;;;17.21;78.51;100747.97;6222421;28;20232;-77
2022/09/08 13:49:16;;;;;;;3.83;3.47;;;;;;;17.01;79.62;100744.06;6231265;28;20228;-74
2022/09/08 13:52:49;;;;;;;3.83;1.73;;;;;;;16.63;80.33;100744.97;6234937;28;20232;-77
2022/09/08 13:56:31;;;;;;;2.15;1.95;;;;;;;16.79;79.75;100734.81;6229645;28;20240;-77
2022/09/08 14:00:03;;;;;;;3.35;3.05;;;;;;;16.87;79.89;100741.25;6226162;28;20245;-77
2022/09/08 14:03:36;;;;;;;2.92;2.35;;;;;;;16.90;80.37;100741.72;6233823;28;20228;-79
2022/09/08 14:07:02;;;;;;;2.17;1.98;;;;;;;16.60;80.52;100745.34;6220861;28;20232;-78
2022/09/08 14:10:46;;;;;;;3.55;2.15;;;;;;;16.78;80.51;100732.28;6226032;28;20252;-79
2022/09/08 14:14:37;;;;;;;2.20;2.00;;;;;;;17.00;79.69;100736.06;6233836;28;20542;-79
2022/09/08 14:18:22;;;;;;;2.15;1.85;;;;;;;16.81;80.24;100740.13;6233284;28;20236;-78
2022/09/08 14:21:49;;;;;;;1.60;1.13;;;;;;;16.80;80.43;100749.28;6219857;28;20314;-78
2022/09/08 14:25:18;;;;;;;3.20;2.85;;;;;;;16.54;80.90;100748.78;6226388;28;20526;-80
2022/09/08 14:28:49;;;;;;;1.88;1.60;;;;;;;16.70;80.96;100737.78;6227521;28;20228;-78
2022/09/08 14:32:28;;;;;;;1.85;1.58;;;;;;;16.87;80.46;100730.38;6219873;28;20237;-79
2022/09/08 14:35:54;;;;;;;1.60;1.50;;;;;;;16.89;80.15;100729.16;6211971;28;20244;-77
2022/09/08 14:39:24;;;;;;;1.50;1.40;;;;;;;16.76;80.80;100737.06;6227829;28;20220;-78
2022/09/08 14:43:06;;;;;;;1.73;1.00;;;;;;;16.72;80.40;100736.59;6217474;28;20228;-78
2022/09/08 14:46:41;;;;;;;1.20;0.82;;;;;;;16.73;80.68;100734.69;6211616;28;20236;-79
2022/09/08 14:50:19;;;;;;;1.10;0.80;;;;;;;16.64;80.74;100735.78;6224279;28;20247;-79
2022/09/08 14:53:58;;;;;;;1.63;1.05;;;;;;;16.89;80.33;100736.47;6220533;28;20230;-81
2022/09/08 14:57:27;;;;;;;2.10;1.10;;;;;;;16.87;80.67;100730.38;6215778;28;20514;-79
2022/09/08 15:00:52;;;;;;;0.82;0.70;;;;;;;16.95;80.31;100727.59;6213982;28;20231;-78
2022/09/08 15:04:17;;;;;;;1.17;1.00;;;;;;;17.05;79.13;100728.19;6224752;28;20537;-79
2022/09/08 15:07:44;;;;;;;0.82;0.82;;;;;;;16.98;78.89;100740.84;6214704;28;20262;-79
2022/09/08 15:11:10;;;;;;;1.20;1.10;;;;;;;17.02;78.47;100740.28;6219872;28;20605;-78
2022/09/08 15:14:35;;;;;;;1.77;0.63;;;;;;;17.03;78.64;100746.59;6227838;28;20232;-77
2022/09/08 15:18:00;;;;;;;0.57;0.57;;;;;;;17.21;77.89;100745.25;6227519;28;20224;-76
2022/09/08 15:21:23;;;;;;;0.93;0.88;;;;;;;17.25;77.41;100749.31;6218887;28;20278;-76
2022/09/08 15:24:51;;;;;;;1.23;0.85;;;;;;;17.01;78.71;100749.50;6222337;28;20652;-77
2022/09/08 15:28:28;;;;;;;1.50;1.40;;;;;;;16.93;79.14;100746.84;6209359;28;20272;-77
2022/09/08 15:31:56;;;;;;;2.27;1.30;;;;;;;16.27;80.88;100746.47;6207647;28;20233;-77
2022/09/08 15:35:38;;;;;;;3.17;1.33;;;;;;;16.70;79.92;100738.63;6217111;28;20240;-77
2022/09/08 15:39:06;;;;;;;1.17;1.13;;;;;;;16.66;79.58;100750.91;6217978;28;20236;-78
2022/09/08 15:42:49;;;;;;;2.47;1.77;;;;;;;16.86;78.44;100737.69;6215671;28;20246;-79
2022/09/08 15:46:19;;;;;;;1.27;1.13;;;;;;;16.27;80.17;100738.31;6215070;28;20240;-77
2022/09/08 15:49:57;;;;;;;1.00;1.00;;;;;;;16.63;79.67;100742.25;6203379;28;20301;-77
2022/09/08 15:54:04;;;;;;;3.23;1.70;;;;;;;16.71;79.24;100736.75;6222655;28;24605;-78
2022/09/08 15:57:48;;;;;;;1.20;1.10;;;;;;;16.46;79.57;100729.69;6203535;28;20618;-77
2022/09/08 16:01:13;;;;;;;1.40;1.30;;;;;;;16.78;78.77;100724.97;6221324;28;20240;-77
2022/09/08 16:04:45;;;;;;;1.63;1.53;;;;;;;16.84;78.89;100722.53;6221520;28;20236;-80
2022/09/08 16:08:18;;;;;;;1.33;1.00;;;;;;;16.78;78.94;100716.81;6218583;28;20433;-79
2022/09/08 16:11:50;;;;;;;3.00;1.90;;;;;;;16.88;79.02;100721.16;6208326;28;20228;-78
2022/09/08 16:15:21;;;;;;;2.27;2.07;;;;;;;17.06;78.41;100722.59;6218987;28;20255;-69
2022/09/08 16:18:50;;;;;;;30.77;28.63;;;;;;;16.88;77.61;100719.28;6226288;28;20638;-79
2022/09/08 16:22:44;;;;;;;27.57;25.43;;;;;;;16.86;78.19;100717.75;6209370;28;20232;-71
2022/09/08 16:26:20;;;;;;;90.57;82.90;;;;;;;16.69;79.25;100727.91;6164254;28;20263;-71
2022/09/08 16:29:51;;;;;;;13.52;12.32;;;;;;;16.99;78.61;100723.47;6213807;28;20242;-81